Time;durP1;ratioP1;P1;durP2;ratioP2;P2;SDS_P1;SDS_P2;PMS_P1;PMS_P2;Temp;Humidity;BMP_temperature;BMP_pressure;BME280_temperature;BME280_humidity;BME280_pressure;Samples;Min_cycle;Max_cycle;Signal;HPM_P1;HPM_P2
2024/01/18 00:00:00;;;;;;;21.38;18.65;;;;;;;;;;480034;28;1866;-72
2024/01/18 00:00:15;;;;;;;21.50;18.43;;;;;;;;;;472078;28;1086;-73
2024/01/18 00:00:31;;;;;;;20.58;17.63;;;;;;;;;;470465;28;912;-73
2024/01/18 00:00:46;;;;;;;20.07;17.80;;;;;;;;;;469749;28;1441;-72
2024/01/18 00:01:02;;;;;;;20.70;18.45;;;;;;;;;;466285;28;1281;-72
2024/01/18 00:01:17;;;;;;;20.97;18.20;;;;;;;;;;466388;28;1101;-72
2024/01/18 00:01:33;;;;;;;21.13;17.92;;;;;;;;;;470853;28;1359;-74
2024/01/18 00:01:50;;;;;;;21.80;18.33;;;;;;;;;;469398;28;914;-73
2024/01/18 00:02:06;;;;;;;22.73;18.70;;;;;;;;;;464288;28;939;-72
2024/01/18 00:02:22;;;;;;;22.53;18.53;;;;;;;;;;464448;28;977;-73
2024/01/18 00:02:39;;;;;;;22.13;18.45;;;;;;;;;;473185;28;1014;-73
2024/01/18 00:02:54;;;;;;;22.15;18.75;;;;;;;;;;464943;28;927;-73
2024/01/18 00:03:09;;;;;;;22.25;18.92;;;;;;;;;;465152;28;957;-73
2024/01/18 00:03:25;;;;;;;22.47;18.90;;;;;;;;;;466044;28;1110;-72
2024/01/18 00:03:40;;;;;;;22.10;18.37;;;;;;;;;;473608;28;934;-72
2024/01/18 00:03:55;;;;;;;21.87;17.90;;;;;;;;;;465497;28;1137;-73
2024/01/18 00:04:11;;;;;;;21.00;17.57;;;;;;;;;;466828;28;1170;-72
2024/01/18 00:04:26;;;;;;;20.70;17.42;;;;;;;;;;468318;28;924;-73
2024/01/18 00:04:41;;;;;;;23.30;17.93;;;;;;;;;;476585;28;1023;-73
2024/01/18 00:04:57;;;;;;;23.20;18.00;;;;;;;;;;473231;28;944;-72
2024/01/18 00:05:13;;;;;;;20.27;17.70;;;;;;;;;;475617;28;1248;-72
2024/01/18 00:05:28;;;;;;;21.20;18.27;;;;;;;;;;468813;28;1172;-72
2024/01/18 00:05:43;;;;;;;22.10;18.53;;;;;;;;;;472952;28;1383;-73
2024/01/18 00:05:59;;;;;;;21.60;18.37;;;;;;;;;;463836;28;1022;-72
2024/01/18 00:06:14;;;;;;;21.35;17.95;;;;;;;;;;463952;28;986;-72
2024/01/18 00:06:31;;;;;;;21.03;17.47;;;;;;;;;;467282;28;1419;-72
2024/01/18 00:06:47;;;;;;;20.10;17.40;;;;;;;;;;469969;28;1056;-73
2024/01/18 00:07:02;;;;;;;19.50;17.37;;;;;;;;;;463760;28;898;-73
2024/01/18 00:07:18;;;;;;;21.33;18.00;;;;;;;;;;464063;28;1285;-73
2024/01/18 00:07:33;;;;;;;22.20;18.13;;;;;;;;;;471007;28;1188;-72
2024/01/18 00:07:49;;;;;;;21.80;17.95;;;;;;;;;;468480;28;1039;-72
2024/01/18 00:08:04;;;;;;;22.37;18.30;;;;;;;;;;465207;28;846;-72
2024/01/18 00:08:19;;;;;;;21.93;18.37;;;;;;;;;;465972;28;1318;-72
2024/01/18 00:08:35;;;;;;;21.92;18.38;;;;;;;;;;473924;28;911;-71
2024/01/18 00:08:50;;;;;;;22.70;18.60;;;;;;;;;;467747;28;1275;-72
2024/01/18 00:09:06;;;;;;;22.27;18.70;;;;;;;;;;462779;28;1570;-71
2024/01/18 00:09:22;;;;;;;22.33;18.37;;;;;;;;;;461496;28;1111;-71
2024/01/18 00:09:37;;;;;;;22.27;18.08;;;;;;;;;;473390;28;1190;-72
2024/01/18 00:09:53;;;;;;;21.33;17.90;;;;;;;;;;464059;28;1089;-71
2024/01/18 00:10:08;;;;;;;21.27;18.20;;;;;;;;;;464101;28;1353;-71
2024/01/18 00:10:26;;;;;;;20.73;18.10;;;;;;;;;;461997;29;942;-71
2024/01/18 00:10:42;;;;;;;20.77;17.50;;;;;;;;;;471079;29;990;-71
2024/01/18 00:10:57;;;;;;;20.83;17.50;;;;;;;;;;463431;28;1173;-71
2024/01/18 00:11:12;;;;;;;20.50;17.92;;;;;;;;;;462915;28;1072;-71
2024/01/18 00:11:28;;;;;;;21.87;18.50;;;;;;;;;;465548;28;1177;-71
2024/01/18 00:11:43;;;;;;;21.50;18.33;;;;;;;;;;473838;28;1190;-72
2024/01/18 00:11:59;;;;;;;21.02;17.73;;;;;;;;;;464759;28;1294;-72
2024/01/18 00:12:14;;;;;;;22.53;18.00;;;;;;;;;;464728;28;1105;-71
2024/01/18 00:12:29;;;;;;;22.00;18.13;;;;;;;;;;468869;28;1333;-71
2024/01/18 00:12:45;;;;;;;20.97;17.67;;;;;;;;;;470117;28;1215;-71
2024/01/18 00:13:00;;;;;;;21.37;17.93;;;;;;;;;;465125;28;1950;-71
2024/01/18 00:13:15;;;;;;;21.90;18.35;;;;;;;;;;464257;28;1358;-71
2024/01/18 00:13:31;;;;;;;22.17;18.47;;;;;;;;;;468922;28;1104;-71
2024/01/18 00:13:47;;;;;;;22.30;18.52;;;;;;;;;;471283;28;1130;-71
2024/01/18 00:14:02;;;;;;;21.13;17.65;;;;;;;;;;465216;28;1154;-71
2024/01/18 00:14:18;;;;;;;20.37;17.13;;;;;;;;;;473889;28;951;-71
2024/01/18 00:14:33;;;;;;;20.35;17.17;;;;;;;;;;469491;29;1428;-71
2024/01/18 00:14:49;;;;;;;20.00;17.07;;;;;;;;;;469537;28;1093;-72
2024/01/18 00:15:04;;;;;;;20.37;16.87;;;;;;;;;;469130;28;1124;-71
2024/01/18 00:15:20;;;;;;;20.85;17.10;;;;;;;;;;468683;29;1466;-71
2024/01/18 00:15:35;;;;;;;21.08;17.42;;;;;;;;;;471312;29;1039;-71
2024/01/18 00:15:50;;;;;;;21.07;17.50;;;;;;;;;;469311;28;1123;-71
2024/01/18 00:16:06;;;;;;;21.07;17.67;;;;;;;;;;466334;29;1346;-71
2024/01/18 00:16:21;;;;;;;19.23;16.55;;;;;;;;;;467585;28;1090;-71
2024/01/18 00:16:37;;;;;;;17.80;15.90;;;;;;;;;;474500;28;1451;-71
2024/01/18 00:16:52;;;;;;;19.80;16.95;;;;;;;;;;475065;28;1272;-71
2024/01/18 00:17:08;;;;;;;21.03;17.43;;;;;;;;;;477114;28;1211;-71
2024/01/18 00:17:23;;;;;;;20.92;17.50;;;;;;;;;;469845;28;1165;-71
2024/01/18 00:17:39;;;;;;;21.73;17.97;;;;;;;;;;474420;28;1250;-71
2024/01/18 00:17:54;;;;;;;20.23;17.17;;;;;;;;;;471040;28;938;-71
2024/01/18 00:18:10;;;;;;;20.10;17.10;;;;;;;;;;477276;28;903;-71
2024/01/18 00:18:26;;;;;;;22.88;18.23;;;;;;;;;;469530;28;916;-71
2024/01/18 00:18:41;;;;;;;21.77;17.70;;;;;;;;;;476466;28;1080;-72
2024/01/18 00:18:57;;;;;;;19.90;16.87;;;;;;;;;;469207;28;917;-71
2024/01/18 00:19:12;;;;;;;19.50;16.88;;;;;;;;;;469134;28;918;-71
2024/01/18 00:19:28;;;;;;;19.38;16.80;;;;;;;;;;472271;28;943;-71
2024/01/18 00:19:44;;;;;;;19.90;16.80;;;;;;;;;;476695;28;1120;-71
2024/01/18 00:19:59;;;;;;;21.50;17.30;;;;;;;;;;466719;28;1024;-71
2024/01/18 00:20:14;;;;;;;20.03;17.00;;;;;;;;;;464724;28;1064;-71
2024/01/18 00:20:30;;;;;;;20.02;16.65;;;;;;;;;;468961;28;1166;-71
2024/01/18 00:20:45;;;;;;;21.13;17.10;;;;;;;;;;471021;28;1634;-71
2024/01/18 00:21:01;;;;;;;20.65;17.10;;;;;;;;;;463969;28;1129;-72
2024/01/18 00:21:16;;;;;;;20.37;17.10;;;;;;;;;;464354;28;898;-71
2024/01/18 00:21:31;;;;;;;19.77;17.00;;;;;;;;;;469973;28;1097;-71
2024/01/18 00:21:47;;;;;;;19.60;16.57;;;;;;;;;;470899;28;1253;-71
2024/01/18 00:22:02;;;;;;;19.53;16.60;;;;;;;;;;463877;28;1243;-71
2024/01/18 00:22:18;;;;;;;20.38;17.17;;;;;;;;;;466307;28;1316;-71
2024/01/18 00:22:33;;;;;;;20.43;17.20;;;;;;;;;;468801;28;1173;-71
2024/01/18 00:22:48;;;;;;;20.13;16.80;;;;;;;;;;470090;28;1170;-71
2024/01/18 00:23:04;;;;;;;20.13;16.87;;;;;;;;;;468412;28;1227;-71
2024/01/18 00:23:19;;;;;;;20.73;16.90;;;;;;;;;;469772;28;1152;-71
2024/01/18 00:23:34;;;;;;;20.45;16.67;;;;;;;;;;471869;28;1045;-71
2024/01/18 00:23:50;;;;;;;20.57;16.77;;;;;;;;;;469147;28;1278;-71
2024/01/18 00:24:06;;;;;;;21.23;17.33;;;;;;;;;;465359;28;1253;-71
2024/01/18 00:24:21;;;;;;;20.83;17.33;;;;;;;;;;465695;28;1089;-71
2024/01/18 00:24:36;;;;;;;21.10;17.17;;;;;;;;;;470428;28;1704;-72
2024/01/18 00:24:52;;;;;;;19.93;16.93;;;;;;;;;;465356;28;911;-71
2024/01/18 00:25:08;;;;;;;20.57;17.37;;;;;;;;;;463237;28;1062;-71
2024/01/18 00:25:23;;;;;;;21.55;17.58;;;;;;;;;;461770;29;1328;-71
2024/01/18 00:25:38;;;;;;;20.20;16.93;;;;;;;;;;471385;29;1306;-71
2024/01/18 00:25:54;;;;;;;19.67;16.83;;;;;;;;;;459956;29;1202;-71
2024/01/18 00:26:09;;;;;;;20.75;17.40;;;;;;;;;;460580;29;950;-72
2024/01/18 00:26:24;;;;;;;20.67;17.50;;;;;;;;;;461701;28;1591;-71
2024/01/18 00:26:40;;;;;;;19.53;16.77;;;;;;;;;;475705;28;1005;-71
2024/01/18 00:26:55;;;;;;;19.90;16.80;;;;;;;;;;465806;28;1342;-72
2024/01/18 00:27:11;;;;;;;20.20;16.97;;;;;;;;;;477405;28;965;-71
2024/01/18 00:27:26;;;;;;;20.02;17.15;;;;;;;;;;467116;28;954;-70
2024/01/18 00:27:41;;;;;;;20.10;17.60;;;;;;;;;;476388;28;928;-71
2024/01/18 00:27:56;;;;;;;20.03;17.43;;;;;;;;;;464040;28;1234;-71
2024/01/18 00:28:12;;;;;;;20.00;17.15;;;;;;;;;;464189;28;1183;-71
2024/01/18 00:28:27;;;;;;;20.70;17.10;;;;;;;;;;464572;28;897;-71
2024/01/18 00:28:42;;;;;;;20.53;17.17;;;;;;;;;;474275;28;1170;-71
2024/01/18 00:29:00;;;;;;;20.42;17.25;;;;;;;;;;463329;28;1254;-71
2024/01/18 00:29:15;;;;;;;20.77;17.33;;;;;;;;;;463166;28;1089;-71
2024/01/18 00:29:31;;;;;;;20.93;17.23;;;;;;;;;;468114;28;1276;-71
2024/01/18 00:29:46;;;;;;;20.30;17.05;;;;;;;;;;462247;29;1410;-71
2024/01/18 00:30:02;;;;;;;20.15;17.13;;;;;;;;;;460928;29;1076;-71
2024/01/18 00:30:18;;;;;;;20.43;17.20;;;;;;;;;;462296;29;1109;-71
2024/01/18 00:30:33;;;;;;;19.83;16.98;;;;;;;;;;470546;28;1191;-71
2024/01/18 00:30:49;;;;;;;20.05;17.23;;;;;;;;;;469805;28;1145;-71
2024/01/18 00:31:04;;;;;;;20.20;17.47;;;;;;;;;;462410;28;1194;-71
2024/01/18 00:31:19;;;;;;;19.60;17.35;;;;;;;;;;464032;28;1156;-71
2024/01/18 00:31:35;;;;;;;20.03;17.47;;;;;;;;;;469492;29;1005;-72
2024/01/18 00:31:55;;;;;;;19.67;17.17;;;;;;;;;;466452;29;1242;-71
2024/01/18 00:32:10;;;;;;;19.42;16.63;;;;;;;;;;462146;29;947;-71
2024/01/18 00:32:26;;;;;;;19.13;16.50;;;;;;;;;;464149;28;972;-71
2024/01/18 00:32:41;;;;;;;18.67;16.67;;;;;;;;;;475038;28;1097;-71
2024/01/18 00:32:57;;;;;;;18.50;16.25;;;;;;;;;;465007;28;1950;-71
2024/01/18 00:33:12;;;;;;;19.60;16.23;;;;;;;;;;466622;28;1289;-71
2024/01/18 00:33:28;;;;;;;21.10;16.92;;;;;;;;;;467605;28;1579;-71
2024/01/18 00:33:43;;;;;;;20.97;17.37;;;;;;;;;;479380;28;921;-71
2024/01/18 00:33:58;;;;;;;20.80;17.13;;;;;;;;;;468368;28;1139;-71
2024/01/18 00:34:14;;;;;;;20.33;16.63;;;;;;;;;;467320;28;999;-71
2024/01/18 00:34:29;;;;;;;19.08;16.42;;;;;;;;;;469362;28;1059;-70
2024/01/18 00:34:45;;;;;;;18.97;16.67;;;;;;;;;;476209;28;1078;-71
2024/01/18 00:35:00;;;;;;;19.87;16.90;;;;;;;;;;465037;28;1397;-71
2024/01/18 00:35:15;;;;;;;20.52;16.70;;;;;;;;;;464425;28;1115;-71
2024/01/18 00:35:31;;;;;;;19.97;16.97;;;;;;;;;;468469;28;920;-71
2024/01/18 00:35:48;;;;;;;19.63;17.15;;;;;;;;;;472700;28;1215;-71
2024/01/18 00:36:04;;;;;;;20.33;16.90;;;;;;;;;;465613;28;1209;-71
2024/01/18 00:36:19;;;;;;;19.52;16.63;;;;;;;;;;464024;28;1051;-71
2024/01/18 00:36:34;;;;;;;18.87;16.73;;;;;;;;;;469072;29;1019;-71
2024/01/18 00:36:50;;;;;;;20.13;16.93;;;;;;;;;;468656;28;1072;-71
2024/01/18 00:37:06;;;;;;;19.67;16.50;;;;;;;;;;463441;28;1301;-71
2024/01/18 00:37:21;;;;;;;19.27;16.83;;;;;;;;;;464744;28;1376;-71
2024/01/18 00:37:36;;;;;;;19.83;16.93;;;;;;;;;;472804;28;1130;-70
2024/01/18 00:37:52;;;;;;;19.15;16.67;;;;;;;;;;468872;28;1028;-71
2024/01/18 00:38:07;;;;;;;19.20;16.70;;;;;;;;;;463916;28;1141;-71
2024/01/18 00:38:22;;;;;;;20.43;16.97;;;;;;;;;;467174;28;1017;-70
2024/01/18 00:38:38;;;;;;;19.97;16.87;;;;;;;;;;477463;28;1120;-71
2024/01/18 00:38:53;;;;;;;19.43;16.87;;;;;;;;;;469245;28;1118;-71
2024/01/18 00:39:11;;;;;;;19.80;17.23;;;;;;;;;;468308;28;1371;-71
2024/01/18 00:39:26;;;;;;;19.80;17.20;;;;;;;;;;466850;28;1241;-71
2024/01/18 00:39:42;;;;;;;20.10;17.07;;;;;;;;;;475767;28;1126;-71
2024/01/18 00:39:57;;;;;;;20.98;17.30;;;;;;;;;;464114;28;919;-71
2024/01/18 00:40:16;;;;;;;21.50;17.63;;;;;;;;;;462698;28;1103;-71
2024/01/18 00:40:31;;;;;;;20.30;17.45;;;;;;;;;;465700;29;1009;-71
2024/01/18 00:40:47;;;;;;;20.58;17.27;;;;;;;;;;470029;29;1080;-71
2024/01/18 00:41:02;;;;;;;20.40;17.03;;;;;;;;;;462420;29;1089;-72
2024/01/18 00:41:17;;;;;;;19.23;16.95;;;;;;;;;;462895;28;1098;-71
2024/01/18 00:41:33;;;;;;;20.13;17.27;;;;;;;;;;469188;28;1139;-71
2024/01/18 00:41:48;;;;;;;21.23;17.73;;;;;;;;;;472394;28;1237;-71
2024/01/18 00:42:03;;;;;;;20.92;17.88;;;;;;;;;;465612;28;855;-71
2024/01/18 00:42:19;;;;;;;21.17;17.80;;;;;;;;;;466726;28;1302;-72
2024/01/18 00:42:34;;;;;;;21.33;18.00;;;;;;;;;;473868;28;1244;-71
2024/01/18 00:42:50;;;;;;;21.00;17.90;;;;;;;;;;472443;28;1249;-71
2024/01/18 00:43:05;;;;;;;20.70;17.50;;;;;;;;;;466222;28;1283;-72
2024/01/18 00:43:20;;;;;;;19.92;16.73;;;;;;;;;;465729;28;919;-72
2024/01/18 00:43:36;;;;;;;19.73;16.90;;;;;;;;;;473153;28;1015;-71
2024/01/18 00:43:51;;;;;;;20.63;17.90;;;;;;;;;;467944;29;1332;-71
2024/01/18 00:44:07;;;;;;;21.03;17.77;;;;;;;;;;463204;28;986;-71
2024/01/18 00:44:22;;;;;;;21.47;17.20;;;;;;;;;;462116;28;1146;-71
2024/01/18 00:44:37;;;;;;;21.20;17.35;;;;;;;;;;471958;28;1124;-71
2024/01/18 00:44:53;;;;;;;20.23;17.47;;;;;;;;;;467729;28;1142;-71
2024/01/18 00:45:08;;;;;;;19.70;17.40;;;;;;;;;;469664;28;995;-71
2024/01/18 00:45:24;;;;;;;20.70;18.13;;;;;;;;;;466104;29;1201;-71
2024/01/18 00:45:39;;;;;;;20.70;17.88;;;;;;;;;;465352;28;1481;-71
2024/01/18 00:45:54;;;;;;;20.23;17.70;;;;;;;;;;464823;28;1160;-71
2024/01/18 00:46:09;;;;;;;20.80;17.83;;;;;;;;;;464284;28;911;-72
2024/01/18 00:46:25;;;;;;;21.40;17.27;;;;;;;;;;464070;28;927;-73
2024/01/18 00:46:40;;;;;;;20.27;16.93;;;;;;;;;;475845;28;1035;-71
2024/01/18 00:46:56;;;;;;;19.92;17.27;;;;;;;;;;474976;28;1094;-71
2024/01/18 00:47:11;;;;;;;20.70;18.07;;;;;;;;;;480570;28;925;-71
2024/01/18 00:47:27;;;;;;;20.60;18.27;;;;;;;;;;468399;28;890;-71
2024/01/18 00:47:42;;;;;;;20.88;17.77;;;;;;;;;;473707;28;933;-71
2024/01/18 00:47:57;;;;;;;21.23;18.07;;;;;;;;;;468514;28;989;-71
2024/01/18 00:48:12;;;;;;;20.90;18.03;;;;;;;;;;466906;28;1138;-71
2024/01/18 00:48:28;;;;;;;21.90;17.65;;;;;;;;;;467843;28;1108;-71
2024/01/18 00:48:43;;;;;;;21.60;17.57;;;;;;;;;;467113;28;1201;-71
2024/01/18 00:48:59;;;;;;;19.67;17.30;;;;;;;;;;464287;28;1107;-71
2024/01/18 00:49:14;;;;;;;19.73;17.53;;;;;;;;;;465275;28;871;-71
2024/01/18 00:49:29;;;;;;;19.60;17.47;;;;;;;;;;467321;28;990;-71
2024/01/18 00:49:45;;;;;;;19.90;17.40;;;;;;;;;;476488;28;906;-71
2024/01/18 00:50:00;;;;;;;22.03;18.37;;;;;;;;;;465469;28;1730;-71
2024/01/18 00:50:15;;;;;;;21.97;18.47;;;;;;;;;;466087;28;1137;-72
2024/01/18 00:50:31;;;;;;;20.77;17.88;;;;;;;;;;464865;28;1461;-72
2024/01/18 00:50:46;;;;;;;20.70;17.63;;;;;;;;;;476601;28;1445;-71
2024/01/18 00:51:01;;;;;;;20.38;17.77;;;;;;;;;;466534;28;910;-71
2024/01/18 00:51:17;;;;;;;20.17;17.37;;;;;;;;;;466396;28;1316;-71
2024/01/18 00:51:32;;;;;;;19.93;17.07;;;;;;;;;;472246;28;947;-72
2024/01/18 00:51:48;;;;;;;20.15;17.48;;;;;;;;;;475985;28;970;-71
2024/01/18 00:52:04;;;;;;;20.83;17.63;;;;;;;;;;467632;28;887;-72
2024/01/18 00:52:19;;;;;;;21.08;17.60;;;;;;;;;;464637;28;1150;-71
2024/01/18 00:52:34;;;;;;;20.45;17.55;;;;;;;;;;470176;28;1047;-71
2024/01/18 00:52:50;;;;;;;19.50;17.07;;;;;;;;;;473192;28;1956;-71
2024/01/18 00:53:05;;;;;;;20.37;17.07;;;;;;;;;;464980;28;1010;-72
2024/01/18 00:53:20;;;;;;;19.88;17.13;;;;;;;;;;463080;28;1091;-71
2024/01/18 00:53:36;;;;;;;19.40;16.97;;;;;;;;;;470885;28;1171;-72
2024/01/18 00:53:51;;;;;;;19.93;17.10;;;;;;;;;;468676;29;1216;-72
2024/01/18 00:54:06;;;;;;;19.48;16.75;;;;;;;;;;463302;28;1212;-71
2024/01/18 00:54:22;;;;;;;18.77;16.57;;;;;;;;;;463792;28;898;-71
2024/01/18 00:54:37;;;;;;;18.63;16.63;;;;;;;;;;472602;28;966;-71
2024/01/18 00:54:52;;;;;;;19.33;16.80;;;;;;;;;;467566;28;966;-71
2024/01/18 00:55:09;;;;;;;19.33;16.73;;;;;;;;;;464096;28;1103;-71
2024/01/18 00:55:25;;;;;;;18.75;16.60;;;;;;;;;;466459;28;1118;-72
2024/01/18 00:55:40;;;;;;;19.20;16.73;;;;;;;;;;478737;28;1100;-71
2024/01/18 00:55:55;;;;;;;19.77;17.00;;;;;;;;;;469227;28;1345;-71
2024/01/18 00:56:11;;;;;;;19.23;16.93;;;;;;;;;;467332;28;1164;-71
2024/01/18 00:56:27;;;;;;;18.80;16.40;;;;;;;;;;466343;28;1151;-71
2024/01/18 00:56:42;;;;;;;18.40;16.33;;;;;;;;;;479413;28;1102;-71
2024/01/18 00:56:57;;;;;;;18.97;16.97;;;;;;;;;;466826;28;892;-71
2024/01/18 00:57:13;;;;;;;19.15;16.90;;;;;;;;;;465683;28;938;-71
2024/01/18 00:57:28;;;;;;;19.00;16.37;;;;;;;;;;469442;28;1269;-71
2024/01/18 00:57:44;;;;;;;19.00;16.55;;;;;;;;;;478378;28;1039;-72
2024/01/18 00:58:00;;;;;;;18.77;16.77;;;;;;;;;;467677;28;919;-71
2024/01/18 00:58:16;;;;;;;19.80;17.40;;;;;;;;;;466145;28;1311;-71
2024/01/18 00:58:31;;;;;;;20.20;17.43;;;;;;;;;;470454;28;942;-71
2024/01/18 00:58:47;;;;;;;20.00;17.27;;;;;;;;;;473678;28;1059;-71
2024/01/18 00:59:02;;;;;;;20.47;17.83;;;;;;;;;;465766;28;1354;-71
2024/01/18 00:59:17;;;;;;;20.03;17.87;;;;;;;;;;465852;28;880;-71
2024/01/18 00:59:33;;;;;;;19.42;17.30;;;;;;;;;;470035;28;877;-71
2024/01/18 00:59:48;;;;;;;19.57;17.30;;;;;;;;;;472867;28;1059;-70
2024/01/18 01:00:05;;;;;;;19.53;17.40;;;;;;;;;;464008;28;1005;-71
2024/01/18 01:00:20;;;;;;;19.83;17.65;;;;;;;;;;463987;28;1217;-71
2024/01/18 01:00:35;;;;;;;19.92;17.50;;;;;;;;;;471718;28;1072;-71
2024/01/18 01:00:51;;;;;;;19.20;17.03;;;;;;;;;;470794;28;1345;-71
2024/01/18 01:01:06;;;;;;;19.23;17.17;;;;;;;;;;477421;28;1064;-71
2024/01/18 01:01:22;;;;;;;19.35;17.00;;;;;;;;;;470720;28;1025;-71
2024/01/18 01:01:37;;;;;;;19.48;16.92;;;;;;;;;;475476;28;1132;-71
2024/01/18 01:01:53;;;;;;;19.13;17.13;;;;;;;;;;468361;28;1437;-71
2024/01/18 01:02:08;;;;;;;19.50;17.47;;;;;;;;;;463178;28;1157;-70
2024/01/18 01:02:23;;;;;;;20.20;17.55;;;;;;;;;;463715;28;875;-71
2024/01/18 01:02:39;;;;;;;20.27;17.67;;;;;;;;;;475534;28;902;-71
2024/01/18 01:02:54;;;;;;;19.70;17.40;;;;;;;;;;470169;28;1122;-71
2024/01/18 01:03:09;;;;;;;20.33;17.50;;;;;;;;;;465761;28;839;-71
2024/01/18 01:03:25;;;;;;;20.10;17.50;;;;;;;;;;466542;28;1314;-71
2024/01/18 01:03:40;;;;;;;20.02;17.48;;;;;;;;;;476334;28;1249;-71
2024/01/18 01:03:56;;;;;;;20.23;17.63;;;;;;;;;;470817;28;1042;-71
2024/01/18 01:04:11;;;;;;;19.70;17.30;;;;;;;;;;468037;28;931;-71
2024/01/18 01:04:26;;;;;;;20.10;17.50;;;;;;;;;;467052;28;1068;-70
2024/01/18 01:04:42;;;;;;;20.57;17.73;;;;;;;;;;480136;28;1236;-71
2024/01/18 01:04:57;;;;;;;20.08;17.58;;;;;;;;;;468492;28;949;-71
2024/01/18 01:05:13;;;;;;;20.03;17.50;;;;;;;;;;479944;28;1446;-70
2024/01/18 01:05:28;;;;;;;20.30;17.67;;;;;;;;;;468554;28;1059;-71
2024/01/18 01:05:44;;;;;;;20.50;18.17;;;;;;;;;;467440;28;1221;-71
2024/01/18 01:05:59;;;;;;;20.48;18.10;;;;;;;;;;466024;28;1297;-71
2024/01/18 01:06:14;;;;;;;20.10;17.70;;;;;;;;;;474517;28;1120;-71
2024/01/18 01:06:30;;;;;;;19.92;17.75;;;;;;;;;;469048;28;1150;-71
2024/01/18 01:06:45;;;;;;;20.30;18.03;;;;;;;;;;474961;29;1297;-71
2024/01/18 01:07:01;;;;;;;20.63;18.33;;;;;;;;;;461104;29;1152;-71
2024/01/18 01:07:16;;;;;;;20.80;18.40;;;;;;;;;;461579;29;1261;-71
2024/01/18 01:07:31;;;;;;;20.17;17.73;;;;;;;;;;464272;29;914;-71
2024/01/18 01:07:47;;;;;;;20.35;17.73;;;;;;;;;;472580;29;1155;-70
2024/01/18 01:08:02;;;;;;;21.57;18.27;;;;;;;;;;460571;29;1226;-72
2024/01/18 01:08:18;;;;;;;21.13;17.92;;;;;;;;;;457867;29;1096;-71
2024/01/18 01:08:33;;;;;;;20.67;17.83;;;;;;;;;;466089;29;1361;-71
2024/01/18 01:08:49;;;;;;;20.30;18.10;;;;;;;;;;469311;29;1096;-71
2024/01/18 01:09:06;;;;;;;20.57;18.37;;;;;;;;;;463369;28;1186;-71
2024/01/18 01:09:21;;;;;;;21.50;18.38;;;;;;;;;;463931;28;1039;-71
2024/01/18 01:09:37;;;;;;;21.00;18.13;;;;;;;;;;470463;29;1465;-71
2024/01/18 01:09:52;;;;;;;20.00;17.87;;;;;;;;;;468520;29;1278;-71
2024/01/18 01:10:08;;;;;;;20.27;18.07;;;;;;;;;;475294;28;938;-70
2024/01/18 01:10:23;;;;;;;20.30;18.13;;;;;;;;;;470213;28;1583;-71
2024/01/18 01:10:39;;;;;;;20.55;18.35;;;;;;;;;;475288;28;1042;-71
2024/01/18 01:10:54;;;;;;;21.50;18.73;;;;;;;;;;468599;28;1235;-71
2024/01/18 01:11:09;;;;;;;20.98;18.33;;;;;;;;;;463921;28;1098;-70
2024/01/18 01:11:25;;;;;;;20.33;17.73;;;;;;;;;;464508;28;1082;-71
2024/01/18 01:11:40;;;;;;;20.10;17.57;;;;;;;;;;477066;28;1034;-71
2024/01/18 01:11:56;;;;;;;20.50;17.58;;;;;;;;;;470299;28;1183;-71
2024/01/18 01:12:12;;;;;;;21.00;18.00;;;;;;;;;;465912;28;1212;-71
2024/01/18 01:12:27;;;;;;;20.73;18.33;;;;;;;;;;465330;28;1181;-71
2024/01/18 01:12:42;;;;;;;20.45;18.20;;;;;;;;;;471107;28;1127;-70
2024/01/18 01:12:58;;;;;;;21.33;18.30;;;;;;;;;;465975;28;1957;-71
2024/01/18 01:13:13;;;;;;;21.33;18.57;;;;;;;;;;466561;28;1117;-72
2024/01/18 01:13:28;;;;;;;21.58;18.75;;;;;;;;;;465670;28;1233;-71
2024/01/18 01:13:44;;;;;;;22.03;18.80;;;;;;;;;;478975;28;1083;-71
2024/01/18 01:14:00;;;;;;;20.50;18.10;;;;;;;;;;463301;29;1277;-71
2024/01/18 01:14:15;;;;;;;21.23;18.13;;;;;;;;;;462569;28;1297;-71
2024/01/18 01:14:30;;;;;;;22.20;18.50;;;;;;;;;;465509;28;1344;-71
2024/01/18 01:14:46;;;;;;;21.63;18.67;;;;;;;;;;463897;29;1064;-71
2024/01/18 01:15:01;;;;;;;22.10;18.87;;;;;;;;;;460742;29;1266;-70
2024/01/18 01:15:17;;;;;;;22.23;18.80;;;;;;;;;;462148;29;1269;-71
2024/01/18 01:15:32;;;;;;;21.92;18.83;;;;;;;;;;469218;28;1380;-71
2024/01/18 01:15:48;;;;;;;22.20;18.90;;;;;;;;;;473782;29;1259;-71
2024/01/18 01:16:03;;;;;;;22.10;19.00;;;;;;;;;;463684;28;1263;-70
2024/01/18 01:16:20;;;;;;;21.57;18.80;;;;;;;;;;464207;28;1090;-71
2024/01/18 01:16:36;;;;;;;20.75;18.52;;;;;;;;;;472066;28;922;-71
2024/01/18 01:16:51;;;;;;;20.98;18.25;;;;;;;;;;470118;28;1484;-70
2024/01/18 01:17:06;;;;;;;21.53;18.10;;;;;;;;;;464039;28;874;-71
2024/01/18 01:17:22;;;;;;;21.90;18.63;;;;;;;;;;464425;28;1608;-70
2024/01/18 01:17:37;;;;;;;22.13;19.10;;;;;;;;;;476487;28;1238;-72
2024/01/18 01:17:52;;;;;;;22.00;19.50;;;;;;;;;;473782;28;1184;-71
2024/01/18 01:18:10;;;;;;;22.08;19.08;;;;;;;;;;465228;28;863;-71
2024/01/18 01:18:25;;;;;;;22.02;18.38;;;;;;;;;;466437;28;903;-70
2024/01/18 01:18:40;;;;;;;22.02;18.75;;;;;;;;;;478399;28;1424;-71
2024/01/18 01:18:56;;;;;;;21.43;18.93;;;;;;;;;;471291;28;1134;-70
2024/01/18 01:19:11;;;;;;;21.30;18.60;;;;;;;;;;466983;28;1264;-70
2024/01/18 01:19:27;;;;;;;21.52;18.52;;;;;;;;;;466802;28;1215;-71
2024/01/18 01:19:42;;;;;;;22.10;18.63;;;;;;;;;;478734;28;1314;-70
2024/01/18 01:19:57;;;;;;;22.42;18.70;;;;;;;;;;469107;28;1108;-70
2024/01/18 01:20:13;;;;;;;22.07;18.83;;;;;;;;;;465868;28;919;-70
2024/01/18 01:20:28;;;;;;;21.70;18.70;;;;;;;;;;467563;28;1495;-71
2024/01/18 01:20:44;;;;;;;22.08;18.70;;;;;;;;;;479866;28;1081;-71
2024/01/18 01:20:59;;;;;;;22.03;18.87;;;;;;;;;;467568;28;996;-71
2024/01/18 01:21:14;;;;;;;20.50;18.27;;;;;;;;;;464073;28;895;-71
2024/01/18 01:21:30;;;;;;;20.47;18.27;;;;;;;;;;467400;28;1136;-70
2024/01/18 01:21:45;;;;;;;21.20;18.73;;;;;;;;;;480173;28;1148;-71
2024/01/18 01:22:00;;;;;;;20.75;18.42;;;;;;;;;;467493;28;970;-70
2024/01/18 01:22:16;;;;;;;20.37;18.17;;;;;;;;;;466392;28;1127;-70
2024/01/18 01:22:31;;;;;;;20.83;18.58;;;;;;;;;;470149;28;1229;-71
2024/01/18 01:22:47;;;;;;;21.50;18.67;;;;;;;;;;479144;28;1098;-70
2024/01/18 01:23:03;;;;;;;21.30;18.40;;;;;;;;;;471124;28;1161;-71
2024/01/18 01:23:18;;;;;;;20.83;18.38;;;;;;;;;;473702;28;1076;-71
2024/01/18 01:23:39;;;;;;;21.53;18.47;;;;;;;;;;472539;28;1048;-71
2024/01/18 01:23:56;;;;;;;22.15;18.88;;;;;;;;;;471845;28;1071;-72
2024/01/18 01:24:11;;;;;;;22.70;19.20;;;;;;;;;;465027;28;923;-71
2024/01/18 01:24:26;;;;;;;22.47;18.77;;;;;;;;;;466965;28;1097;-70
2024/01/18 01:24:42;;;;;;;22.77;18.40;;;;;;;;;;479651;28;1054;-70
2024/01/18 01:24:57;;;;;;;22.08;18.27;;;;;;;;;;470114;28;1344;-71
2024/01/18 01:25:13;;;;;;;21.90;18.43;;;;;;;;;;465593;28;1155;-70
2024/01/18 01:25:28;;;;;;;21.67;18.42;;;;;;;;;;466635;28;1520;-71
2024/01/18 01:25:43;;;;;;;21.40;18.33;;;;;;;;;;478172;28;980;-71
2024/01/18 01:26:01;;;;;;;22.08;18.83;;;;;;;;;;466630;28;1102;-71
2024/01/18 01:26:16;;;;;;;21.55;18.80;;;;;;;;;;462882;29;1218;-70
2024/01/18 01:26:32;;;;;;;21.03;18.73;;;;;;;;;;467068;28;917;-71
2024/01/18 01:26:47;;;;;;;21.42;18.98;;;;;;;;;;477199;28;1191;-71
2024/01/18 01:27:03;;;;;;;21.27;18.50;;;;;;;;;;476272;28;1071;-70
2024/01/18 01:27:18;;;;;;;21.00;18.40;;;;;;;;;;467253;28;1210;-71
2024/01/18 01:27:34;;;;;;;22.83;18.87;;;;;;;;;;468980;28;1296;-71
2024/01/18 01:27:49;;;;;;;23.25;18.73;;;;;;;;;;474484;28;1075;-71
2024/01/18 01:28:05;;;;;;;21.33;18.20;;;;;;;;;;464400;28;1056;-70
2024/01/18 01:28:21;;;;;;;21.23;18.42;;;;;;;;;;462923;28;1110;-71
2024/01/18 01:28:36;;;;;;;20.93;18.40;;;;;;;;;;469982;28;1329;-70
2024/01/18 01:28:52;;;;;;;20.95;18.40;;;;;;;;;;471285;28;1118;-70
2024/01/18 01:29:08;;;;;;;21.50;18.33;;;;;;;;;;462611;28;1262;-71
2024/01/18 01:29:23;;;;;;;22.25;18.65;;;;;;;;;;463321;28;1392;-70
2024/01/18 01:29:38;;;;;;;22.38;19.65;;;;;;;;;;474468;28;1054;-70
2024/01/18 01:29:54;;;;;;;22.40;19.50;;;;;;;;;;471763;28;926;-70
2024/01/18 01:30:10;;;;;;;23.23;19.40;;;;;;;;;;463005;28;1273;-70
2024/01/18 01:30:25;;;;;;;23.23;19.63;;;;;;;;;;463296;28;1231;-70
2024/01/18 01:30:41;;;;;;;22.87;19.13;;;;;;;;;;474611;28;872;-71
2024/01/18 01:30:56;;;;;;;22.60;19.00;;;;;;;;;;467959;28;1289;-71
2024/01/18 01:31:11;;;;;;;21.75;19.23;;;;;;;;;;463522;28;1312;-71
2024/01/18 01:31:27;;;;;;;21.90;19.43;;;;;;;;;;464337;28;1440;-70
2024/01/18 01:31:43;;;;;;;22.08;19.63;;;;;;;;;;477243;28;1255;-71
2024/01/18 01:31:58;;;;;;;22.08;19.33;;;;;;;;;;469674;28;1409;-71
2024/01/18 01:32:13;;;;;;;22.37;18.73;;;;;;;;;;467007;28;1384;-70
2024/01/18 01:32:29;;;;;;;22.53;18.87;;;;;;;;;;470478;28;944;-70
2024/01/18 01:32:44;;;;;;;22.75;19.30;;;;;;;;;;481178;28;1067;-71
2024/01/18 01:33:00;;;;;;;21.57;18.97;;;;;;;;;;469519;28;1942;-71
2024/01/18 01:33:15;;;;;;;21.03;18.60;;;;;;;;;;465684;28;1091;-70